Statesboro, Georgia
Current Conditions -  °F | °C
As of 12:55 PM on Sunday 21 Dec 2014 (Local Time) from KTBR Reporting Station
Overcast Overcast  
Wind Chill: 46°   Ceiling: 1000
Heat Index: 48°   Visibility: 10mi
Dew Point: 48°   Wind: 5mph
Humidity: 100%   Direction: 60°ENE
Pressure: 30.17"   Gusts: NA
Location:  32.45°N, 81.78°W
Report Text: KTBR 211755Z AUTO 06004KT 10SM BKN010 OVC035 09/09 A3017 RMK AO2 T00900090 10090 20077
Loading
Personal Weather Stations






























Interactive Weather Map New forecast layout! Learn more

10-Day Weather Forecast

Advertisements
Track Severe Weather on mobile